sensor_id;sensor_type;location;lat;lon;timestamp;P1;durP1;ratioP1;P2;durP2;ratioP2
25049;SDS011;13046;49.814;9.918;2023-05-07T00:01:49;6.97;;;4.93;;
25049;SDS011;13046;49.814;9.918;2023-05-07T00:04:14;6.05;;;4.88;;
25049;SDS011;13046;49.814;9.918;2023-05-07T00:06:40;6.22;;;4.15;;
25049;SDS011;13046;49.814;9.918;2023-05-07T00:09:06;5.28;;;4.78;;
25049;SDS011;13046;49.814;9.918;2023-05-07T00:11:32;4.80;;;4.28;;
25049;SDS011;13046;49.814;9.918;2023-05-07T00:13:58;10.82;;;5.80;;
25049;SDS011;13046;49.814;9.918;2023-05-07T00:16:23;5.53;;;4.63;;
25049;SDS011;13046;49.814;9.918;2023-05-07T00:18:49;4.35;;;3.95;;
25049;SDS011;13046;49.814;9.918;2023-05-07T00:21:15;4.78;;;4.38;;
25049;SDS011;13046;49.814;9.918;2023-05-07T00:23:41;4.50;;;4.10;;
25049;SDS011;13046;49.814;9.918;2023-05-07T00:26:06;5.95;;;4.72;;
25049;SDS011;13046;49.814;9.918;2023-05-07T00:28:32;4.50;;;4.05;;
25049;SDS011;13046;49.814;9.918;2023-05-07T00:30:58;7.80;;;4.47;;
25049;SDS011;13046;49.814;9.918;2023-05-07T00:33:23;5.22;;;4.72;;
25049;SDS011;13046;49.814;9.918;2023-05-07T00:35:51;4.30;;;3.95;;
25049;SDS011;13046;49.814;9.918;2023-05-07T00:38:19;4.97;;;4.20;;
25049;SDS011;13046;49.814;9.918;2023-05-07T00:40:44;4.85;;;4.35;;
25049;SDS011;13046;49.814;9.918;2023-05-07T00:43:10;5.63;;;4.63;;
25049;SDS011;13046;49.814;9.918;2023-05-07T00:45:37;5.05;;;4.50;;
25049;SDS011;13046;49.814;9.918;2023-05-07T00:48:03;4.88;;;4.30;;
25049;SDS011;13046;49.814;9.918;2023-05-07T00:50:29;4.43;;;4.03;;
25049;SDS011;13046;49.814;9.918;2023-05-07T00:52:56;4.60;;;4.15;;
25049;SDS011;13046;49.814;9.918;2023-05-07T00:55:22;5.32;;;4.40;;
25049;SDS011;13046;49.814;9.918;2023-05-07T00:57:48;6.63;;;5.15;;
25049;SDS011;13046;49.814;9.918;2023-05-07T01:00:15;4.47;;;3.95;;
25049;SDS011;13046;49.814;9.918;2023-05-07T01:02:41;7.20;;;3.60;;
25049;SDS011;13046;49.814;9.918;2023-05-07T01:05:08;5.32;;;4.68;;
25049;SDS011;13046;49.814;9.918;2023-05-07T01:07:38;6.78;;;3.90;;
25049;SDS011;13046;49.814;9.918;2023-05-07T01:10:05;6.68;;;4.22;;
25049;SDS011;13046;49.814;9.918;2023-05-07T01:12:32;5.05;;;4.18;;
25049;SDS011;13046;49.814;9.918;2023-05-07T01:14:59;6.05;;;4.53;;
25049;SDS011;13046;49.814;9.918;2023-05-07T01:17:25;4.72;;;4.25;;
25049;SDS011;13046;49.814;9.918;2023-05-07T01:19:51;4.80;;;3.70;;
25049;SDS011;13046;49.814;9.918;2023-05-07T01:25:14;5.22;;;4.22;;
25049;SDS011;13046;49.814;9.918;2023-05-07T01:27:46;5.53;;;4.03;;
25049;SDS011;13046;49.814;9.918;2023-05-07T01:30:12;4.57;;;4.18;;
25049;SDS011;13046;49.814;9.918;2023-05-07T01:32:48;4.88;;;4.47;;
25049;SDS011;13046;49.814;9.918;2023-05-07T01:35:23;6.55;;;4.68;;
25049;SDS011;13046;49.814;9.918;2023-05-07T01:37:51;6.05;;;4.18;;
25049;SDS011;13046;49.814;9.918;2023-05-07T01:40:18;5.13;;;4.15;;
25049;SDS011;13046;49.814;9.918;2023-05-07T01:42:43;3.97;;;3.58;;
25049;SDS011;13046;49.814;9.918;2023-05-07T01:45:10;5.72;;;4.25;;
25049;SDS011;13046;49.814;9.918;2023-05-07T01:47:37;4.50;;;4.10;;
25049;SDS011;13046;49.814;9.918;2023-05-07T01:50:03;6.30;;;4.28;;
25049;SDS011;13046;49.814;9.918;2023-05-07T01:52:38;5.75;;;5.07;;
25049;SDS011;13046;49.814;9.918;2023-05-07T01:55:05;5.30;;;4.50;;
25049;SDS011;13046;49.814;9.918;2023-05-07T01:57:31;9.40;;;4.38;;
25049;SDS011;13046;49.814;9.918;2023-05-07T01:59:56;6.93;;;4.07;;
25049;SDS011;13046;49.814;9.918;2023-05-07T02:02:22;5.25;;;4.75;;
25049;SDS011;13046;49.814;9.918;2023-05-07T02:04:48;6.03;;;4.13;;
25049;SDS011;13046;49.814;9.918;2023-05-07T02:07:15;4.40;;;4.10;;
25049;SDS011;13046;49.814;9.918;2023-05-07T02:09:41;6.90;;;4.30;;
25049;SDS011;13046;49.814;9.918;2023-05-07T02:12:07;4.75;;;4.35;;
25049;SDS011;13046;49.814;9.918;2023-05-07T02:14:33;4.65;;;4.25;;
25049;SDS011;13046;49.814;9.918;2023-05-07T02:16:58;6.03;;;4.10;;
25049;SDS011;13046;49.814;9.918;2023-05-07T02:19:24;5.80;;;4.25;;
25049;SDS011;13046;49.814;9.918;2023-05-07T02:21:50;4.18;;;3.85;;
25049;SDS011;13046;49.814;9.918;2023-05-07T02:24:16;7.38;;;4.43;;
25049;SDS011;13046;49.814;9.918;2023-05-07T02:26:42;4.57;;;4.22;;
25049;SDS011;13046;49.814;9.918;2023-05-07T02:29:07;5.55;;;4.45;;
25049;SDS011;13046;49.814;9.918;2023-05-07T02:31:33;5.20;;;4.75;;
25049;SDS011;13046;49.814;9.918;2023-05-07T02:33:59;5.28;;;4.78;;
25049;SDS011;13046;49.814;9.918;2023-05-07T02:36:26;4.78;;;4.38;;
25049;SDS011;13046;49.814;9.918;2023-05-07T02:39:01;5.15;;;4.60;;
25049;SDS011;13046;49.814;9.918;2023-05-07T02:41:28;4.75;;;4.30;;
25049;SDS011;13046;49.814;9.918;2023-05-07T02:43:53;6.70;;;4.57;;
25049;SDS011;13046;49.814;9.918;2023-05-07T02:46:20;5.35;;;4.88;;
25049;SDS011;13046;49.814;9.918;2023-05-07T02:48:51;5.40;;;4.30;;
25049;SDS011;13046;49.814;9.918;2023-05-07T02:51:19;4.75;;;4.30;;
25049;SDS011;13046;49.814;9.918;2023-05-07T02:53:46;5.43;;;4.13;;
25049;SDS011;13046;49.814;9.918;2023-05-07T02:56:12;5.28;;;4.70;;
25049;SDS011;13046;49.814;9.918;2023-05-07T02:58:37;4.85;;;4.38;;
25049;SDS011;13046;49.814;9.918;2023-05-07T03:01:08;4.93;;;4.53;;
25049;SDS011;13046;49.814;9.918;2023-05-07T03:03:38;8.80;;;4.95;;
25049;SDS011;13046;49.814;9.918;2023-05-07T03:06:06;5.05;;;4.63;;
25049;SDS011;13046;49.814;9.918;2023-05-07T03:08:32;6.35;;;4.43;;
25049;SDS011;13046;49.814;9.918;2023-05-07T03:10:58;5.25;;;4.35;;
25049;SDS011;13046;49.814;9.918;2023-05-07T03:13:23;8.43;;;4.70;;
25049;SDS011;13046;49.814;9.918;2023-05-07T03:15:49;6.10;;;4.75;;
25049;SDS011;13046;49.814;9.918;2023-05-07T03:18:15;4.95;;;4.20;;
25049;SDS011;13046;49.814;9.918;2023-05-07T03:20:41;6.15;;;4.40;;
25049;SDS011;13046;49.814;9.918;2023-05-07T03:23:07;4.57;;;4.18;;
25049;SDS011;13046;49.814;9.918;2023-05-07T03:25:33;5.75;;;4.40;;
25049;SDS011;13046;49.814;9.918;2023-05-07T03:27:58;4.88;;;4.18;;
25049;SDS011;13046;49.814;9.918;2023-05-07T03:30:31;5.00;;;4.55;;
25049;SDS011;13046;49.814;9.918;2023-05-07T03:32:58;5.28;;;4.43;;
25049;SDS011;13046;49.814;9.918;2023-05-07T03:35:24;6.28;;;4.78;;
25049;SDS011;13046;49.814;9.918;2023-05-07T03:37:50;5.10;;;4.60;;
25049;SDS011;13046;49.814;9.918;2023-05-07T03:40:17;5.40;;;5.00;;
25049;SDS011;13046;49.814;9.918;2023-05-07T03:42:48;5.10;;;4.65;;
25049;SDS011;13046;49.814;9.918;2023-05-07T03:45:15;4.50;;;4.10;;
25049;SDS011;13046;49.814;9.918;2023-05-07T03:47:45;5.00;;;4.53;;
25049;SDS011;13046;49.814;9.918;2023-05-07T03:50:15;5.85;;;5.30;;
25049;SDS011;13046;49.814;9.918;2023-05-07T03:52:41;4.40;;;4.00;;
25049;SDS011;13046;49.814;9.918;2023-05-07T03:55:08;6.82;;;4.80;;
25049;SDS011;13046;49.814;9.918;2023-05-07T03:57:36;5.40;;;3.92;;
25049;SDS011;13046;49.814;9.918;2023-05-07T04:00:02;5.13;;;4.45;;
25049;SDS011;13046;49.814;9.918;2023-05-07T04:02:34;7.05;;;4.72;;
25049;SDS011;13046;49.814;9.918;2023-05-07T04:05:01;5.18;;;4.78;;
25049;SDS011;13046;49.814;9.918;2023-05-07T04:07:27;5.00;;;4.55;;
25049;SDS011;13046;49.814;9.918;2023-05-07T04:09:53;8.60;;;5.53;;
25049;SDS011;13046;49.814;9.918;2023-05-07T04:12:19;7.30;;;5.38;;
25049;SDS011;13046;49.814;9.918;2023-05-07T04:14:44;5.63;;;5.13;;
25049;SDS011;13046;49.814;9.918;2023-05-07T04:17:10;9.35;;;5.53;;
25049;SDS011;13046;49.814;9.918;2023-05-07T04:19:37;4.93;;;4.53;;
25049;SDS011;13046;49.814;9.918;2023-05-07T04:22:03;5.43;;;4.93;;
25049;SDS011;13046;49.814;9.918;2023-05-07T04:24:31;6.10;;;5.47;;
25049;SDS011;13046;49.814;9.918;2023-05-07T04:26:58;5.65;;;5.15;;
25049;SDS011;13046;49.814;9.918;2023-05-07T04:29:24;6.40;;;5.55;;
25049;SDS011;13046;49.814;9.918;2023-05-07T04:31:51;7.65;;;6.32;;
25049;SDS011;13046;49.814;9.918;2023-05-07T04:34:16;7.57;;;6.53;;
25049;SDS011;13046;49.814;9.918;2023-05-07T04:36:42;7.38;;;6.60;;
25049;SDS011;13046;49.814;9.918;2023-05-07T04:39:10;7.53;;;6.75;;
25049;SDS011;13046;49.814;9.918;2023-05-07T04:41:38;9.15;;;6.28;;
25049;SDS011;13046;49.814;9.918;2023-05-07T04:44:05;6.80;;;6.00;;
25049;SDS011;13046;49.814;9.918;2023-05-07T04:46:32;6.47;;;5.97;;
25049;SDS011;13046;49.814;9.918;2023-05-07T04:48:57;10.23;;;6.93;;
25049;SDS011;13046;49.814;9.918;2023-05-07T04:51:23;11.68;;;8.90;;
25049;SDS011;13046;49.814;9.918;2023-05-07T04:53:49;9.77;;;8.88;;
25049;SDS011;13046;49.814;9.918;2023-05-07T04:56:15;9.77;;;8.88;;
25049;SDS011;13046;49.814;9.918;2023-05-07T04:58:43;9.55;;;8.73;;
25049;SDS011;13046;49.814;9.918;2023-05-07T05:01:09;11.90;;;9.48;;
25049;SDS011;13046;49.814;9.918;2023-05-07T05:03:36;12.65;;;11.43;;
25049;SDS011;13046;49.814;9.918;2023-05-07T05:06:02;11.88;;;10.70;;
25049;SDS011;13046;49.814;9.918;2023-05-07T05:08:31;13.32;;;12.05;;
25049;SDS011;13046;49.814;9.918;2023-05-07T05:10:57;13.48;;;12.18;;
25049;SDS011;13046;49.814;9.918;2023-05-07T05:13:23;12.93;;;11.63;;
25049;SDS011;13046;49.814;9.918;2023-05-07T05:15:50;14.60;;;13.20;;
25049;SDS011;13046;49.814;9.918;2023-05-07T05:18:15;15.93;;;14.52;;
25049;SDS011;13046;49.814;9.918;2023-05-07T05:20:41;15.07;;;13.68;;
25049;SDS011;13046;49.814;9.918;2023-05-07T05:23:07;14.55;;;13.18;;
25049;SDS011;13046;49.814;9.918;2023-05-07T05:25:33;14.23;;;12.98;;
25049;SDS011;13046;49.814;9.918;2023-05-07T05:28:00;16.13;;;14.45;;
25049;SDS011;13046;49.814;9.918;2023-05-07T05:30:27;17.30;;;15.68;;
25049;SDS011;13046;49.814;9.918;2023-05-07T05:32:52;18.67;;;16.58;;
25049;SDS011;13046;49.814;9.918;2023-05-07T05:35:18;17.10;;;15.38;;
25049;SDS011;13046;49.814;9.918;2023-05-07T05:37:44;16.90;;;15.50;;
25049;SDS011;13046;49.814;9.918;2023-05-07T05:40:11;16.33;;;14.82;;
25049;SDS011;13046;49.814;9.918;2023-05-07T05:42:36;17.60;;;15.80;;
25049;SDS011;13046;49.814;9.918;2023-05-07T05:45:02;16.25;;;14.75;;
25049;SDS011;13046;49.814;9.918;2023-05-07T05:47:30;16.95;;;15.25;;
25049;SDS011;13046;49.814;9.918;2023-05-07T05:49:56;16.42;;;14.95;;
25049;SDS011;13046;49.814;9.918;2023-05-07T05:52:22;17.85;;;16.00;;
25049;SDS011;13046;49.814;9.918;2023-05-07T05:54:49;15.55;;;14.13;;
25049;SDS011;13046;49.814;9.918;2023-05-07T05:57:15;19.45;;;16.10;;
25049;SDS011;13046;49.814;9.918;2023-05-07T05:59:42;17.20;;;15.40;;
25049;SDS011;13046;49.814;9.918;2023-05-07T06:02:07;17.23;;;15.60;;
25049;SDS011;13046;49.814;9.918;2023-05-07T06:04:33;18.65;;;16.67;;
25049;SDS011;13046;49.814;9.918;2023-05-07T06:06:59;17.52;;;15.95;;
25049;SDS011;13046;49.814;9.918;2023-05-07T06:09:25;17.95;;;16.15;;
25049;SDS011;13046;49.814;9.918;2023-05-07T06:11:51;17.08;;;15.48;;
25049;SDS011;13046;49.814;9.918;2023-05-07T06:14:16;17.50;;;15.90;;
25049;SDS011;13046;49.814;9.918;2023-05-07T06:16:42;30.25;;;16.75;;
25049;SDS011;13046;49.814;9.918;2023-05-07T06:19:09;15.93;;;14.43;;
25049;SDS011;13046;49.814;9.918;2023-05-07T06:21:36;17.95;;;16.08;;
25049;SDS011;13046;49.814;9.918;2023-05-07T06:24:01;16.33;;;14.93;;
25049;SDS011;13046;49.814;9.918;2023-05-07T06:26:27;17.67;;;16.08;;
25049;SDS011;13046;49.814;9.918;2023-05-07T06:28:53;17.42;;;15.93;;
25049;SDS011;13046;49.814;9.918;2023-05-07T06:31:19;17.30;;;15.70;;
25049;SDS011;13046;49.814;9.918;2023-05-07T06:34:00;17.17;;;15.68;;
25049;SDS011;13046;49.814;9.918;2023-05-07T06:36:32;17.35;;;15.68;;
25049;SDS011;13046;49.814;9.918;2023-05-07T06:39:01;17.95;;;16.25;;
25049;SDS011;13046;49.814;9.918;2023-05-07T06:41:26;17.92;;;16.20;;
25049;SDS011;13046;49.814;9.918;2023-05-07T06:43:54;19.80;;;16.33;;
25049;SDS011;13046;49.814;9.918;2023-05-07T06:46:42;18.40;;;16.70;;
25049;SDS011;13046;49.814;9.918;2023-05-07T06:49:08;17.75;;;16.08;;
25049;SDS011;13046;49.814;9.918;2023-05-07T06:51:34;18.60;;;16.73;;
25049;SDS011;13046;49.814;9.918;2023-05-07T06:54:02;16.02;;;14.43;;
25049;SDS011;13046;49.814;9.918;2023-05-07T06:56:30;17.38;;;15.57;;
25049;SDS011;13046;49.814;9.918;2023-05-07T06:58:56;17.00;;;15.50;;
25049;SDS011;13046;49.814;9.918;2023-05-07T07:01:22;17.83;;;16.33;;
25049;SDS011;13046;49.814;9.918;2023-05-07T07:03:48;16.98;;;15.48;;
25049;SDS011;13046;49.814;9.918;2023-05-07T07:06:14;17.80;;;16.20;;
25049;SDS011;13046;49.814;9.918;2023-05-07T07:08:40;16.30;;;14.70;;
25049;SDS011;13046;49.814;9.918;2023-05-07T07:11:06;17.38;;;15.45;;
25049;SDS011;13046;49.814;9.918;2023-05-07T07:13:33;17.63;;;16.02;;
25049;SDS011;13046;49.814;9.918;2023-05-07T07:15:59;16.13;;;14.55;;
25049;SDS011;13046;49.814;9.918;2023-05-07T07:18:25;15.88;;;14.20;;
25049;SDS011;13046;49.814;9.918;2023-05-07T07:20:53;16.75;;;14.18;;
25049;SDS011;13046;49.814;9.918;2023-05-07T07:23:19;17.48;;;13.95;;
25049;SDS011;13046;49.814;9.918;2023-05-07T07:25:45;16.98;;;15.48;;
25049;SDS011;13046;49.814;9.918;2023-05-07T07:28:11;16.70;;;15.00;;
25049;SDS011;13046;49.814;9.918;2023-05-07T07:30:37;15.27;;;13.88;;
25049;SDS011;13046;49.814;9.918;2023-05-07T07:33:03;16.67;;;15.02;;
25049;SDS011;13046;49.814;9.918;2023-05-07T07:35:33;16.27;;;14.65;;
25049;SDS011;13046;49.814;9.918;2023-05-07T07:37:59;17.02;;;15.23;;
25049;SDS011;13046;49.814;9.918;2023-05-07T07:40:26;16.30;;;14.82;;
25049;SDS011;13046;49.814;9.918;2023-05-07T07:42:53;15.23;;;13.95;;
25049;SDS011;13046;49.814;9.918;2023-05-07T07:45:19;15.18;;;13.77;;
25049;SDS011;13046;49.814;9.918;2023-05-07T07:47:47;15.80;;;14.30;;
25049;SDS011;13046;49.814;9.918;2023-05-07T07:50:12;16.42;;;13.48;;
25049;SDS011;13046;49.814;9.918;2023-05-07T07:52:38;16.85;;;15.25;;
25049;SDS011;13046;49.814;9.918;2023-05-07T07:55:06;14.52;;;13.30;;
25049;SDS011;13046;49.814;9.918;2023-05-07T07:57:32;14.95;;;13.75;;
25049;SDS011;13046;49.814;9.918;2023-05-07T07:59:58;15.15;;;13.75;;
25049;SDS011;13046;49.814;9.918;2023-05-07T08:02:24;15.60;;;14.30;;
25049;SDS011;13046;49.814;9.918;2023-05-07T08:04:50;15.98;;;14.27;;
25049;SDS011;13046;49.814;9.918;2023-05-07T08:07:16;15.50;;;13.93;;
25049;SDS011;13046;49.814;9.918;2023-05-07T08:09:46;18.30;;;15.43;;
25049;SDS011;13046;49.814;9.918;2023-05-07T08:12:13;15.52;;;14.13;;
25049;SDS011;13046;49.814;9.918;2023-05-07T08:14:40;18.73;;;14.82;;
25049;SDS011;13046;49.814;9.918;2023-05-07T08:17:06;16.52;;;14.88;;
25049;SDS011;13046;49.814;9.918;2023-05-07T08:19:33;17.80;;;16.20;;
25049;SDS011;13046;49.814;9.918;2023-05-07T08:21:59;17.15;;;15.35;;
25049;SDS011;13046;49.814;9.918;2023-05-07T08:24:25;17.52;;;14.90;;
25049;SDS011;13046;49.814;9.918;2023-05-07T08:26:51;18.33;;;15.80;;
25049;SDS011;13046;49.814;9.918;2023-05-07T08:29:18;15.57;;;14.23;;
25049;SDS011;13046;49.814;9.918;2023-05-07T08:31:45;17.13;;;15.35;;
25049;SDS011;13046;49.814;9.918;2023-05-07T08:34:11;18.10;;;14.75;;
25049;SDS011;13046;49.814;9.918;2023-05-07T08:36:40;14.63;;;13.25;;
25049;SDS011;13046;49.814;9.918;2023-05-07T08:39:07;17.42;;;15.25;;
25049;SDS011;13046;49.814;9.918;2023-05-07T08:41:34;14.52;;;13.23;;
25049;SDS011;13046;49.814;9.918;2023-05-07T08:44:01;15.32;;;13.73;;
25049;SDS011;13046;49.814;9.918;2023-05-07T08:46:30;17.33;;;15.65;;
25049;SDS011;13046;49.814;9.918;2023-05-07T08:48:57;16.45;;;14.95;;
25049;SDS011;13046;49.814;9.918;2023-05-07T08:51:24;14.13;;;12.68;;
25049;SDS011;13046;49.814;9.918;2023-05-07T08:53:50;14.40;;;13.05;;
25049;SDS011;13046;49.814;9.918;2023-05-07T08:56:22;15.18;;;13.57;;
25049;SDS011;13046;49.814;9.918;2023-05-07T08:58:50;13.85;;;12.45;;
25049;SDS011;13046;49.814;9.918;2023-05-07T09:01:16;13.45;;;12.35;;
25049;SDS011;13046;49.814;9.918;2023-05-07T09:03:45;12.98;;;11.90;;
25049;SDS011;13046;49.814;9.918;2023-05-07T09:06:12;14.80;;;13.48;;
25049;SDS011;13046;49.814;9.918;2023-05-07T09:08:38;14.18;;;12.85;;
25049;SDS011;13046;49.814;9.918;2023-05-07T09:11:06;13.77;;;12.55;;
25049;SDS011;13046;49.814;9.918;2023-05-07T09:13:32;14.43;;;13.02;;
25049;SDS011;13046;49.814;9.918;2023-05-07T09:16:09;13.90;;;12.70;;
25049;SDS011;13046;49.814;9.918;2023-05-07T09:18:43;14.15;;;12.85;;
25049;SDS011;13046;49.814;9.918;2023-05-07T09:21:12;14.98;;;13.57;;
25049;SDS011;13046;49.814;9.918;2023-05-07T09:23:41;18.48;;;12.82;;
25049;SDS011;13046;49.814;9.918;2023-05-07T09:26:07;13.75;;;12.45;;
25049;SDS011;13046;49.814;9.918;2023-05-07T09:28:40;14.32;;;12.95;;
25049;SDS011;13046;49.814;9.918;2023-05-07T09:31:09;13.88;;;12.57;;
25049;SDS011;13046;49.814;9.918;2023-05-07T09:33:35;13.38;;;12.35;;
25049;SDS011;13046;49.814;9.918;2023-05-07T09:36:06;13.90;;;12.15;;
25049;SDS011;13046;49.814;9.918;2023-05-07T09:38:36;15.10;;;13.68;;
25049;SDS011;13046;49.814;9.918;2023-05-07T09:43:42;13.55;;;12.35;;
25049;SDS011;13046;49.814;9.918;2023-05-07T09:46:14;13.88;;;12.15;;
25049;SDS011;13046;49.814;9.918;2023-05-07T09:48:47;14.02;;;12.77;;
25049;SDS011;13046;49.814;9.918;2023-05-07T09:51:21;13.52;;;12.32;;
25049;SDS011;13046;49.814;9.918;2023-05-07T09:53:52;12.85;;;11.25;;
25049;SDS011;13046;49.814;9.918;2023-05-07T09:56:19;12.35;;;11.15;;
25049;SDS011;13046;49.814;9.918;2023-05-07T09:58:45;13.10;;;12.00;;
25049;SDS011;13046;49.814;9.918;2023-05-07T10:01:12;11.95;;;10.85;;
25049;SDS011;13046;49.814;9.918;2023-05-07T10:03:40;13.25;;;12.13;;
25049;SDS011;13046;49.814;9.918;2023-05-07T10:06:09;12.43;;;11.25;;
25049;SDS011;13046;49.814;9.918;2023-05-07T10:08:36;11.15;;;10.13;;
25049;SDS011;13046;49.814;9.918;2023-05-07T10:11:04;11.55;;;10.45;;
25049;SDS011;13046;49.814;9.918;2023-05-07T10:13:32;12.93;;;11.70;;
25049;SDS011;13046;49.814;9.918;2023-05-07T10:16:01;11.27;;;10.27;;
25049;SDS011;13046;49.814;9.918;2023-05-07T10:18:37;12.88;;;11.77;;
25049;SDS011;13046;49.814;9.918;2023-05-07T10:21:11;12.43;;;11.15;;
25049;SDS011;13046;49.814;9.918;2023-05-07T10:23:44;12.93;;;11.65;;
25049;SDS011;13046;49.814;9.918;2023-05-07T10:26:12;12.25;;;11.20;;
25049;SDS011;13046;49.814;9.918;2023-05-07T10:28:41;12.32;;;11.02;;
25049;SDS011;13046;49.814;9.918;2023-05-07T10:33:54;11.02;;;9.80;;
25049;SDS011;13046;49.814;9.918;2023-05-07T10:36:22;11.73;;;10.70;;
25049;SDS011;13046;49.814;9.918;2023-05-07T10:38:51;12.55;;;11.45;;
25049;SDS011;13046;49.814;9.918;2023-05-07T10:41:17;10.68;;;9.77;;
25049;SDS011;13046;49.814;9.918;2023-05-07T10:43:44;11.05;;;9.98;;
25049;SDS011;13046;49.814;9.918;2023-05-07T10:46:22;10.23;;;9.23;;
25049;SDS011;13046;49.814;9.918;2023-05-07T10:51:53;10.02;;;9.13;;
25049;SDS011;13046;49.814;9.918;2023-05-07T10:57:48;10.15;;;9.25;;
25049;SDS011;13046;49.814;9.918;2023-05-07T11:05:31;9.02;;;8.25;;
25049;SDS011;13046;49.814;9.918;2023-05-07T11:08:13;10.40;;;8.27;;
25049;SDS011;13046;49.814;9.918;2023-05-07T11:10:49;8.98;;;8.15;;
25049;SDS011;13046;49.814;9.918;2023-05-07T11:13:45;10.38;;;9.50;;
25049;SDS011;13046;49.814;9.918;2023-05-07T11:16:31;9.38;;;8.55;;
25049;SDS011;13046;49.814;9.918;2023-05-07T11:19:09;7.97;;;7.20;;
25049;SDS011;13046;49.814;9.918;2023-05-07T11:21:41;9.05;;;8.35;;
25049;SDS011;13046;49.814;9.918;2023-05-07T11:24:16;9.60;;;7.72;;
25049;SDS011;13046;49.814;9.918;2023-05-07T11:26:53;9.10;;;8.30;;
25049;SDS011;13046;49.814;9.918;2023-05-07T11:29:21;8.85;;;8.00;;
25049;SDS011;13046;49.814;9.918;2023-05-07T11:31:52;8.05;;;6.95;;
25049;SDS011;13046;49.814;9.918;2023-05-07T11:34:21;7.93;;;7.30;;
25049;SDS011;13046;49.814;9.918;2023-05-07T11:36:49;7.88;;;7.18;;
25049;SDS011;13046;49.814;9.918;2023-05-07T11:39:28;8.50;;;7.68;;
25049;SDS011;13046;49.814;9.918;2023-05-07T11:41:56;7.85;;;7.25;;
25049;SDS011;13046;49.814;9.918;2023-05-07T11:44:22;7.93;;;7.18;;
25049;SDS011;13046;49.814;9.918;2023-05-07T11:46:48;7.05;;;6.55;;
25049;SDS011;13046;49.814;9.918;2023-05-07T11:49:14;7.68;;;6.97;;
25049;SDS011;13046;49.814;9.918;2023-05-07T11:51:40;8.88;;;8.18;;
25049;SDS011;13046;49.814;9.918;2023-05-07T11:54:08;8.13;;;7.53;;
25049;SDS011;13046;49.814;9.918;2023-05-07T11:56:36;8.20;;;7.43;;
25049;SDS011;13046;49.814;9.918;2023-05-07T11:59:02;7.70;;;7.00;;
25049;SDS011;13046;49.814;9.918;2023-05-07T12:01:28;7.80;;;7.20;;
25049;SDS011;13046;49.814;9.918;2023-05-07T12:03:53;7.35;;;6.75;;
25049;SDS011;13046;49.814;9.918;2023-05-07T12:06:19;7.75;;;7.00;;
25049;SDS011;13046;49.814;9.918;2023-05-07T12:08:45;9.40;;;7.78;;
25049;SDS011;13046;49.814;9.918;2023-05-07T12:11:16;7.68;;;6.97;;
25049;SDS011;13046;49.814;9.918;2023-05-07T12:13:47;7.00;;;6.50;;
25049;SDS011;13046;49.814;9.918;2023-05-07T12:16:13;6.88;;;6.28;;
25049;SDS011;13046;49.814;9.918;2023-05-07T12:18:39;7.38;;;6.68;;
25049;SDS011;13046;49.814;9.918;2023-05-07T12:21:05;7.05;;;6.22;;
25049;SDS011;13046;49.814;9.918;2023-05-07T12:23:33;6.25;;;5.75;;
25049;SDS011;13046;49.814;9.918;2023-05-07T12:26:00;6.82;;;6.20;;
25049;SDS011;13046;49.814;9.918;2023-05-07T12:28:27;7.80;;;7.05;;
25049;SDS011;13046;49.814;9.918;2023-05-07T12:30:53;7.65;;;6.95;;
25049;SDS011;13046;49.814;9.918;2023-05-07T12:33:22;6.93;;;6.18;;
25049;SDS011;13046;49.814;9.918;2023-05-07T12:35:50;6.40;;;5.90;;
25049;SDS011;13046;49.814;9.918;2023-05-07T12:38:16;7.75;;;7.10;;
25049;SDS011;13046;49.814;9.918;2023-05-07T12:40:43;7.68;;;6.90;;
25049;SDS011;13046;49.814;9.918;2023-05-07T12:43:20;6.35;;;5.85;;
25049;SDS011;13046;49.814;9.918;2023-05-07T12:45:49;5.68;;;5.18;;
25049;SDS011;13046;49.814;9.918;2023-05-07T12:48:16;6.10;;;5.60;;
25049;SDS011;13046;49.814;9.918;2023-05-07T12:50:42;6.35;;;4.75;;
25049;SDS011;13046;49.814;9.918;2023-05-07T12:53:09;6.88;;;5.15;;
25049;SDS011;13046;49.814;9.918;2023-05-07T12:55:44;5.28;;;4.85;;
25049;SDS011;13046;49.814;9.918;2023-05-07T12:58:15;4.38;;;4.07;;
25049;SDS011;13046;49.814;9.918;2023-05-07T13:00:43;4.95;;;4.57;;
25049;SDS011;13046;49.814;9.918;2023-05-07T13:03:12;5.35;;;4.88;;
25049;SDS011;13046;49.814;9.918;2023-05-07T13:05:46;6.25;;;5.68;;
25049;SDS011;13046;49.814;9.918;2023-05-07T13:08:12;5.88;;;4.90;;
25049;SDS011;13046;49.814;9.918;2023-05-07T13:10:58;4.78;;;4.47;;
25049;SDS011;13046;49.814;9.918;2023-05-07T13:13:28;6.95;;;4.55;;
25049;SDS011;13046;49.814;9.918;2023-05-07T13:15:55;4.90;;;4.50;;
25049;SDS011;13046;49.814;9.918;2023-05-07T13:18:21;5.78;;;5.03;;
25049;SDS011;13046;49.814;9.918;2023-05-07T13:20:46;5.22;;;4.72;;
25049;SDS011;13046;49.814;9.918;2023-05-07T13:23:12;6.45;;;5.05;;
25049;SDS011;13046;49.814;9.918;2023-05-07T13:25:38;4.57;;;4.18;;
25049;SDS011;13046;49.814;9.918;2023-05-07T13:28:03;4.25;;;3.85;;
25049;SDS011;13046;49.814;9.918;2023-05-07T13:30:29;4.60;;;4.30;;
25049;SDS011;13046;49.814;9.918;2023-05-07T13:32:55;4.75;;;4.35;;
25049;SDS011;13046;49.814;9.918;2023-05-07T13:35:21;17.48;;;4.35;;
25049;SDS011;13046;49.814;9.918;2023-05-07T13:37:47;3.90;;;3.60;;
25049;SDS011;13046;49.814;9.918;2023-05-07T13:40:14;5.85;;;3.30;;
25049;SDS011;13046;49.814;9.918;2023-05-07T13:42:40;3.95;;;3.50;;
25049;SDS011;13046;49.814;9.918;2023-05-07T13:45:06;4.03;;;3.67;;
25049;SDS011;13046;49.814;9.918;2023-05-07T13:47:33;3.88;;;3.58;;
25049;SDS011;13046;49.814;9.918;2023-05-07T13:49:59;3.97;;;3.63;;
25049;SDS011;13046;49.814;9.918;2023-05-07T13:52:24;4.38;;;3.97;;
25049;SDS011;13046;49.814;9.918;2023-05-07T13:54:50;4.32;;;3.58;;
25049;SDS011;13046;49.814;9.918;2023-05-07T13:57:18;4.57;;;4.25;;
25049;SDS011;13046;49.814;9.918;2023-05-07T13:59:43;4.40;;;4.00;;
25049;SDS011;13046;49.814;9.918;2023-05-07T14:02:09;4.18;;;3.88;;
25049;SDS011;13046;49.814;9.918;2023-05-07T14:04:35;5.68;;;4.65;;
25049;SDS011;13046;49.814;9.918;2023-05-07T14:07:02;4.38;;;4.07;;
25049;SDS011;13046;49.814;9.918;2023-05-07T14:09:28;7.03;;;5.65;;
25049;SDS011;13046;49.814;9.918;2023-05-07T14:11:53;4.57;;;4.18;;
25049;SDS011;13046;49.814;9.918;2023-05-07T14:14:19;4.20;;;3.90;;
25049;SDS011;13046;49.814;9.918;2023-05-07T14:16:45;7.25;;;4.18;;
25049;SDS011;13046;49.814;9.918;2023-05-07T14:19:11;4.97;;;4.57;;
25049;SDS011;13046;49.814;9.918;2023-05-07T14:21:37;4.10;;;3.70;;
25049;SDS011;13046;49.814;9.918;2023-05-07T14:24:03;4.38;;;4.07;;
25049;SDS011;13046;49.814;9.918;2023-05-07T14:26:29;4.38;;;3.83;;
25049;SDS011;13046;49.814;9.918;2023-05-07T14:28:55;4.70;;;4.20;;
25049;SDS011;13046;49.814;9.918;2023-05-07T14:31:23;4.93;;;4.50;;
25049;SDS011;13046;49.814;9.918;2023-05-07T14:33:49;5.15;;;4.75;;
25049;SDS011;13046;49.814;9.918;2023-05-07T14:36:16;3.90;;;3.60;;
25049;SDS011;13046;49.814;9.918;2023-05-07T14:38:42;4.93;;;4.53;;
25049;SDS011;13046;49.814;9.918;2023-05-07T14:41:08;6.20;;;5.07;;
25049;SDS011;13046;49.814;9.918;2023-05-07T14:43:33;6.22;;;5.20;;
25049;SDS011;13046;49.814;9.918;2023-05-07T14:45:59;5.93;;;5.35;;
25049;SDS011;13046;49.814;9.918;2023-05-07T14:48:25;7.13;;;6.53;;
25049;SDS011;13046;49.814;9.918;2023-05-07T14:50:50;5.60;;;5.10;;
25049;SDS011;13046;49.814;9.918;2023-05-07T14:53:16;6.15;;;5.65;;
25049;SDS011;13046;49.814;9.918;2023-05-07T14:55:41;6.22;;;5.72;;
25049;SDS011;13046;49.814;9.918;2023-05-07T14:58:07;5.88;;;5.38;;
25049;SDS011;13046;49.814;9.918;2023-05-07T15:00:33;9.02;;;5.35;;